sensor_id;sensor_type;location;lat;lon;timestamp;P1;durP1;ratioP1;P2;durP2;ratioP2
38117;SDS011;23928;47.562;7.508;2023-08-21T00:00:04;6.43;;;4.70;;
38117;SDS011;23928;47.562;7.508;2023-08-21T00:02:30;6.03;;;5.33;;
38117;SDS011;23928;47.562;7.508;2023-08-21T00:04:56;8.40;;;5.60;;
38117;SDS011;23928;47.562;7.508;2023-08-21T00:07:22;6.57;;;5.50;;
38117;SDS011;23928;47.562;7.508;2023-08-21T00:09:47;6.60;;;4.73;;
38117;SDS011;23928;47.562;7.508;2023-08-21T00:12:13;5.83;;;5.23;;
38117;SDS011;23928;47.562;7.508;2023-08-21T00:14:39;6.20;;;5.23;;
38117;SDS011;23928;47.562;7.508;2023-08-21T00:17:04;7.03;;;5.20;;
38117;SDS011;23928;47.562;7.508;2023-08-21T00:19:30;6.23;;;4.93;;
38117;SDS011;23928;47.562;7.508;2023-08-21T00:21:57;6.70;;;5.33;;
38117;SDS011;23928;47.562;7.508;2023-08-21T00:24:22;6.77;;;5.40;;
38117;SDS011;23928;47.562;7.508;2023-08-21T00:26:48;5.17;;;4.63;;
38117;SDS011;23928;47.562;7.508;2023-08-21T00:29:13;7.83;;;5.47;;
38117;SDS011;23928;47.562;7.508;2023-08-21T00:31:39;7.70;;;5.50;;
38117;SDS011;23928;47.562;7.508;2023-08-21T00:34:05;6.53;;;5.83;;
38117;SDS011;23928;47.562;7.508;2023-08-21T00:36:30;6.60;;;5.50;;
38117;SDS011;23928;47.562;7.508;2023-08-21T00:38:56;7.07;;;5.87;;
38117;SDS011;23928;47.562;7.508;2023-08-21T00:41:21;7.13;;;5.17;;
38117;SDS011;23928;47.562;7.508;2023-08-21T00:43:47;5.87;;;5.17;;
38117;SDS011;23928;47.562;7.508;2023-08-21T00:46:13;7.07;;;6.13;;
38117;SDS011;23928;47.562;7.508;2023-08-21T00:48:39;6.23;;;5.60;;
38117;SDS011;23928;47.562;7.508;2023-08-21T00:51:04;6.17;;;5.17;;
38117;SDS011;23928;47.562;7.508;2023-08-21T00:53:31;7.57;;;6.10;;
38117;SDS011;23928;47.562;7.508;2023-08-21T00:55:57;8.43;;;5.80;;
38117;SDS011;23928;47.562;7.508;2023-08-21T00:58:23;6.40;;;5.23;;
38117;SDS011;23928;47.562;7.508;2023-08-21T01:00:49;6.27;;;5.13;;
38117;SDS011;23928;47.562;7.508;2023-08-21T01:03:16;6.50;;;5.90;;
38117;SDS011;23928;47.562;7.508;2023-08-21T01:05:42;6.87;;;5.73;;
38117;SDS011;23928;47.562;7.508;2023-08-21T01:08:19;7.57;;;5.50;;
38117;SDS011;23928;47.562;7.508;2023-08-21T01:10:54;6.40;;;5.80;;
38117;SDS011;23928;47.562;7.508;2023-08-21T01:15:59;7.87;;;6.03;;
38117;SDS011;23928;47.562;7.508;2023-08-21T01:18:25;9.63;;;6.03;;
38117;SDS011;23928;47.562;7.508;2023-08-21T01:20:53;6.13;;;5.53;;
38117;SDS011;23928;47.562;7.508;2023-08-21T01:23:36;6.43;;;5.57;;
38117;SDS011;23928;47.562;7.508;2023-08-21T01:26:02;7.93;;;5.53;;
38117;SDS011;23928;47.562;7.508;2023-08-21T01:28:28;8.63;;;5.87;;
38117;SDS011;23928;47.562;7.508;2023-08-21T01:31:06;8.00;;;5.80;;
38117;SDS011;23928;47.562;7.508;2023-08-21T01:33:45;6.63;;;5.93;;
38117;SDS011;23928;47.562;7.508;2023-08-21T01:36:13;9.57;;;6.00;;
38117;SDS011;23928;47.562;7.508;2023-08-21T01:38:39;6.43;;;5.83;;
38117;SDS011;23928;47.562;7.508;2023-08-21T01:41:06;6.27;;;5.67;;
38117;SDS011;23928;47.562;7.508;2023-08-21T01:43:31;8.40;;;5.63;;
38117;SDS011;23928;47.562;7.508;2023-08-21T01:45:57;8.70;;;5.90;;
38117;SDS011;23928;47.562;7.508;2023-08-21T01:48:23;7.03;;;6.07;;
38117;SDS011;23928;47.562;7.508;2023-08-21T01:50:49;8.23;;;5.67;;
38117;SDS011;23928;47.562;7.508;2023-08-21T01:53:14;6.23;;;5.43;;
38117;SDS011;23928;47.562;7.508;2023-08-21T01:55:40;6.50;;;5.73;;
38117;SDS011;23928;47.562;7.508;2023-08-21T01:58:05;6.93;;;5.50;;
38117;SDS011;23928;47.562;7.508;2023-08-21T02:00:31;5.97;;;5.37;;
38117;SDS011;23928;47.562;7.508;2023-08-21T02:02:57;5.90;;;5.40;;
38117;SDS011;23928;47.562;7.508;2023-08-21T02:05:22;6.30;;;5.50;;
38117;SDS011;23928;47.562;7.508;2023-08-21T02:07:48;6.90;;;5.23;;
38117;SDS011;23928;47.562;7.508;2023-08-21T02:10:13;8.87;;;5.70;;
38117;SDS011;23928;47.562;7.508;2023-08-21T02:12:39;7.33;;;5.63;;
38117;SDS011;23928;47.562;7.508;2023-08-21T02:15:05;6.30;;;5.70;;
38117;SDS011;23928;47.562;7.508;2023-08-21T02:17:31;7.33;;;5.83;;
38117;SDS011;23928;47.562;7.508;2023-08-21T02:19:57;8.13;;;5.70;;
38117;SDS011;23928;47.562;7.508;2023-08-21T02:22:22;8.10;;;5.60;;
38117;SDS011;23928;47.562;7.508;2023-08-21T02:24:48;8.20;;;5.90;;
38117;SDS011;23928;47.562;7.508;2023-08-21T02:27:14;7.00;;;5.57;;
38117;SDS011;23928;47.562;7.508;2023-08-21T02:29:39;7.33;;;5.83;;
38117;SDS011;23928;47.562;7.508;2023-08-21T02:32:05;7.37;;;5.90;;
38117;SDS011;23928;47.562;7.508;2023-08-21T02:34:30;6.53;;;5.70;;
38117;SDS011;23928;47.562;7.508;2023-08-21T02:36:56;10.10;;;6.10;;
38117;SDS011;23928;47.562;7.508;2023-08-21T02:39:23;7.17;;;6.03;;
38117;SDS011;23928;47.562;7.508;2023-08-21T02:41:49;8.33;;;5.80;;
38117;SDS011;23928;47.562;7.508;2023-08-21T02:44:14;6.87;;;5.80;;
38117;SDS011;23928;47.562;7.508;2023-08-21T02:46:40;9.40;;;5.90;;
38117;SDS011;23928;47.562;7.508;2023-08-21T02:49:05;8.27;;;6.07;;
38117;SDS011;23928;47.562;7.508;2023-08-21T02:51:31;6.83;;;6.20;;
38117;SDS011;23928;47.562;7.508;2023-08-21T02:53:57;8.63;;;6.20;;
38117;SDS011;23928;47.562;7.508;2023-08-21T02:56:22;7.57;;;5.97;;
38117;SDS011;23928;47.562;7.508;2023-08-21T02:58:48;6.80;;;6.00;;
38117;SDS011;23928;47.562;7.508;2023-08-21T03:01:13;8.83;;;6.13;;
38117;SDS011;23928;47.562;7.508;2023-08-21T03:03:39;8.93;;;6.60;;
38117;SDS011;23928;47.562;7.508;2023-08-21T03:06:04;8.37;;;5.83;;
38117;SDS011;23928;47.562;7.508;2023-08-21T03:08:30;7.70;;;6.27;;
38117;SDS011;23928;47.562;7.508;2023-08-21T03:10:56;6.70;;;6.00;;
38117;SDS011;23928;47.562;7.508;2023-08-21T03:13:22;7.23;;;6.27;;
38117;SDS011;23928;47.562;7.508;2023-08-21T03:15:47;7.23;;;6.53;;
38117;SDS011;23928;47.562;7.508;2023-08-21T03:18:13;7.70;;;6.40;;
38117;SDS011;23928;47.562;7.508;2023-08-21T03:20:43;8.30;;;6.13;;
38117;SDS011;23928;47.562;7.508;2023-08-21T03:23:10;7.30;;;6.13;;
38117;SDS011;23928;47.562;7.508;2023-08-21T03:25:35;6.87;;;5.70;;
38117;SDS011;23928;47.562;7.508;2023-08-21T03:28:01;7.03;;;6.33;;
38117;SDS011;23928;47.562;7.508;2023-08-21T03:30:26;7.30;;;6.60;;
38117;SDS011;23928;47.562;7.508;2023-08-21T03:32:52;7.23;;;6.03;;
38117;SDS011;23928;47.562;7.508;2023-08-21T03:35:17;8.23;;;6.73;;
38117;SDS011;23928;47.562;7.508;2023-08-21T03:37:43;8.47;;;6.20;;
38117;SDS011;23928;47.562;7.508;2023-08-21T03:40:09;7.07;;;6.07;;
38117;SDS011;23928;47.562;7.508;2023-08-21T03:42:34;7.27;;;6.67;;
38117;SDS011;23928;47.562;7.508;2023-08-21T03:45:00;7.30;;;6.47;;
38117;SDS011;23928;47.562;7.508;2023-08-21T03:47:28;6.60;;;6.00;;
38117;SDS011;23928;47.562;7.508;2023-08-21T03:49:54;8.37;;;6.33;;
38117;SDS011;23928;47.562;7.508;2023-08-21T03:52:19;9.60;;;6.80;;
38117;SDS011;23928;47.562;7.508;2023-08-21T03:54:45;7.43;;;6.63;;
38117;SDS011;23928;47.562;7.508;2023-08-21T03:57:11;8.00;;;6.43;;
38117;SDS011;23928;47.562;7.508;2023-08-21T03:59:36;9.37;;;7.20;;
38117;SDS011;23928;47.562;7.508;2023-08-21T04:02:02;7.43;;;6.37;;
38117;SDS011;23928;47.562;7.508;2023-08-21T04:04:27;8.03;;;7.00;;
38117;SDS011;23928;47.562;7.508;2023-08-21T04:06:53;8.30;;;6.77;;
38117;SDS011;23928;47.562;7.508;2023-08-21T04:09:18;8.57;;;6.87;;
38117;SDS011;23928;47.562;7.508;2023-08-21T04:11:44;8.70;;;7.03;;
38117;SDS011;23928;47.562;7.508;2023-08-21T04:14:09;7.33;;;6.37;;
38117;SDS011;23928;47.562;7.508;2023-08-21T04:16:35;13.10;;;6.50;;
38117;SDS011;23928;47.562;7.508;2023-08-21T04:19:01;7.67;;;6.30;;
38117;SDS011;23928;47.562;7.508;2023-08-21T04:21:26;7.90;;;6.90;;
38117;SDS011;23928;47.562;7.508;2023-08-21T04:23:52;8.77;;;6.33;;
38117;SDS011;23928;47.562;7.508;2023-08-21T04:26:18;11.10;;;6.20;;
38117;SDS011;23928;47.562;7.508;2023-08-21T04:28:44;6.87;;;6.17;;
38117;SDS011;23928;47.562;7.508;2023-08-21T04:31:10;11.53;;;7.00;;
38117;SDS011;23928;47.562;7.508;2023-08-21T04:33:36;7.57;;;6.53;;
38117;SDS011;23928;47.562;7.508;2023-08-21T04:36:01;8.27;;;6.60;;
38117;SDS011;23928;47.562;7.508;2023-08-21T04:38:27;7.20;;;6.40;;
38117;SDS011;23928;47.562;7.508;2023-08-21T04:40:53;10.10;;;6.90;;
38117;SDS011;23928;47.562;7.508;2023-08-21T04:43:18;9.03;;;7.40;;
38117;SDS011;23928;47.562;7.508;2023-08-21T04:45:50;8.07;;;6.70;;
38117;SDS011;23928;47.562;7.508;2023-08-21T04:48:19;8.00;;;7.20;;
38117;SDS011;23928;47.562;7.508;2023-08-21T04:50:45;7.93;;;6.63;;
38117;SDS011;23928;47.562;7.508;2023-08-21T04:53:11;8.60;;;6.53;;
38117;SDS011;23928;47.562;7.508;2023-08-21T04:55:37;7.20;;;6.50;;
38117;SDS011;23928;47.562;7.508;2023-08-21T04:58:05;8.20;;;6.90;;
38117;SDS011;23928;47.562;7.508;2023-08-21T05:00:31;7.50;;;6.70;;
38117;SDS011;23928;47.562;7.508;2023-08-21T05:02:57;7.50;;;6.80;;
38117;SDS011;23928;47.562;7.508;2023-08-21T05:05:22;7.40;;;6.70;;
38117;SDS011;23928;47.562;7.508;2023-08-21T05:07:48;8.93;;;7.30;;
38117;SDS011;23928;47.562;7.508;2023-08-21T05:10:13;7.83;;;7.00;;
38117;SDS011;23928;47.562;7.508;2023-08-21T05:12:39;11.43;;;7.13;;
38117;SDS011;23928;47.562;7.508;2023-08-21T05:15:05;8.77;;;7.07;;
38117;SDS011;23928;47.562;7.508;2023-08-21T05:17:30;8.17;;;7.13;;
38117;SDS011;23928;47.562;7.508;2023-08-21T05:19:56;8.30;;;7.30;;
38117;SDS011;23928;47.562;7.508;2023-08-21T05:22:22;7.97;;;7.17;;
38117;SDS011;23928;47.562;7.508;2023-08-21T05:24:47;8.40;;;7.60;;
38117;SDS011;23928;47.562;7.508;2023-08-21T05:27:13;8.90;;;6.77;;
38117;SDS011;23928;47.562;7.508;2023-08-21T05:29:38;10.30;;;7.03;;
38117;SDS011;23928;47.562;7.508;2023-08-21T05:32:04;10.30;;;7.00;;
38117;SDS011;23928;47.562;7.508;2023-08-21T05:34:30;8.40;;;7.60;;
38117;SDS011;23928;47.562;7.508;2023-08-21T05:36:56;8.53;;;7.67;;
38117;SDS011;23928;47.562;7.508;2023-08-21T05:39:21;12.50;;;7.47;;
38117;SDS011;23928;47.562;7.508;2023-08-21T05:41:47;8.90;;;7.97;;
38117;SDS011;23928;47.562;7.508;2023-08-21T05:44:13;9.40;;;7.63;;
38117;SDS011;23928;47.562;7.508;2023-08-21T05:46:38;7.93;;;6.67;;
38117;SDS011;23928;47.562;7.508;2023-08-21T05:49:04;7.27;;;6.57;;
38117;SDS011;23928;47.562;7.508;2023-08-21T05:51:30;8.97;;;7.70;;
38117;SDS011;23928;47.562;7.508;2023-08-21T05:53:56;10.83;;;8.40;;
38117;SDS011;23928;47.562;7.508;2023-08-21T05:56:21;8.97;;;7.33;;
38117;SDS011;23928;47.562;7.508;2023-08-21T05:58:48;9.20;;;7.17;;
38117;SDS011;23928;47.562;7.508;2023-08-21T06:01:13;8.10;;;7.30;;
38117;SDS011;23928;47.562;7.508;2023-08-21T06:03:39;10.10;;;6.87;;
38117;SDS011;23928;47.562;7.508;2023-08-21T06:06:04;10.20;;;6.87;;
38117;SDS011;23928;47.562;7.508;2023-08-21T06:08:30;7.50;;;6.80;;
38117;SDS011;23928;47.562;7.508;2023-08-21T06:10:56;8.57;;;7.03;;
38117;SDS011;23928;47.562;7.508;2023-08-21T06:13:22;8.73;;;6.33;;
38117;SDS011;23928;47.562;7.508;2023-08-21T06:15:48;7.60;;;6.70;;
38117;SDS011;23928;47.562;7.508;2023-08-21T06:18:14;9.17;;;7.37;;
38117;SDS011;23928;47.562;7.508;2023-08-21T06:20:43;10.43;;;8.30;;
38117;SDS011;23928;47.562;7.508;2023-08-21T06:23:09;9.17;;;7.73;;
38117;SDS011;23928;47.562;7.508;2023-08-21T06:25:35;11.47;;;8.40;;
38117;SDS011;23928;47.562;7.508;2023-08-21T06:28:01;12.40;;;7.70;;
38117;SDS011;23928;47.562;7.508;2023-08-21T06:30:27;10.83;;;8.37;;
38117;SDS011;23928;47.562;7.508;2023-08-21T06:32:52;9.60;;;8.60;;
38117;SDS011;23928;47.562;7.508;2023-08-21T06:35:18;10.27;;;8.23;;
38117;SDS011;23928;47.562;7.508;2023-08-21T06:37:44;10.90;;;8.83;;
38117;SDS011;23928;47.562;7.508;2023-08-21T06:40:10;8.97;;;8.00;;
38117;SDS011;23928;47.562;7.508;2023-08-21T06:42:36;9.50;;;8.07;;
38117;SDS011;23928;47.562;7.508;2023-08-21T06:45:02;12.00;;;8.90;;
38117;SDS011;23928;47.562;7.508;2023-08-21T06:47:29;10.63;;;9.17;;
38117;SDS011;23928;47.562;7.508;2023-08-21T06:49:55;10.93;;;9.50;;
38117;SDS011;23928;47.562;7.508;2023-08-21T06:52:20;9.43;;;8.10;;
38117;SDS011;23928;47.562;7.508;2023-08-21T06:54:46;11.60;;;8.80;;
38117;SDS011;23928;47.562;7.508;2023-08-21T06:57:11;9.77;;;8.77;;
38117;SDS011;23928;47.562;7.508;2023-08-21T06:59:37;10.60;;;8.10;;
38117;SDS011;23928;47.562;7.508;2023-08-21T07:02:03;10.10;;;8.10;;
38117;SDS011;23928;47.562;7.508;2023-08-21T07:04:28;10.90;;;8.60;;
38117;SDS011;23928;47.562;7.508;2023-08-21T07:06:54;12.60;;;9.27;;
38117;SDS011;23928;47.562;7.508;2023-08-21T07:09:20;8.90;;;7.73;;
38117;SDS011;23928;47.562;7.508;2023-08-21T07:11:45;8.10;;;7.30;;
38117;SDS011;23928;47.562;7.508;2023-08-21T07:14:11;10.90;;;8.40;;
38117;SDS011;23928;47.562;7.508;2023-08-21T07:16:38;10.00;;;8.50;;
38117;SDS011;23928;47.562;7.508;2023-08-21T07:19:04;8.90;;;7.90;;
38117;SDS011;23928;47.562;7.508;2023-08-21T07:21:30;7.97;;;7.17;;
38117;SDS011;23928;47.562;7.508;2023-08-21T07:23:56;9.77;;;8.07;;
38117;SDS011;23928;47.562;7.508;2023-08-21T07:26:22;9.17;;;8.27;;
38117;SDS011;23928;47.562;7.508;2023-08-21T07:28:47;9.07;;;8.13;;
38117;SDS011;23928;47.562;7.508;2023-08-21T07:31:13;10.67;;;8.87;;
38117;SDS011;23928;47.562;7.508;2023-08-21T07:33:38;10.90;;;8.30;;
38117;SDS011;23928;47.562;7.508;2023-08-21T07:36:04;9.93;;;8.93;;
38117;SDS011;23928;47.562;7.508;2023-08-21T07:38:31;12.17;;;8.37;;
38117;SDS011;23928;47.562;7.508;2023-08-21T07:41:10;9.67;;;7.90;;
38117;SDS011;23928;47.562;7.508;2023-08-21T07:43:37;9.93;;;8.13;;
38117;SDS011;23928;47.562;7.508;2023-08-21T07:46:03;9.67;;;7.93;;
38117;SDS011;23928;47.562;7.508;2023-08-21T07:48:30;10.63;;;8.63;;
38117;SDS011;23928;47.562;7.508;2023-08-21T07:50:56;11.40;;;7.77;;
38117;SDS011;23928;47.562;7.508;2023-08-21T07:53:22;10.70;;;7.70;;
38117;SDS011;23928;47.562;7.508;2023-08-21T07:55:48;8.83;;;7.93;;
38117;SDS011;23928;47.562;7.508;2023-08-21T07:58:14;9.77;;;7.87;;
38117;SDS011;23928;47.562;7.508;2023-08-21T08:00:40;9.63;;;8.00;;
38117;SDS011;23928;47.562;7.508;2023-08-21T08:03:07;10.17;;;8.00;;
38117;SDS011;23928;47.562;7.508;2023-08-21T08:05:33;9.63;;;8.37;;
38117;SDS011;23928;47.562;7.508;2023-08-21T08:07:59;10.17;;;8.33;;
38117;SDS011;23928;47.562;7.508;2023-08-21T08:10:24;9.87;;;8.37;;
38117;SDS011;23928;47.562;7.508;2023-08-21T08:12:50;8.87;;;8.03;;
38117;SDS011;23928;47.562;7.508;2023-08-21T08:15:17;10.70;;;7.80;;
38117;SDS011;23928;47.562;7.508;2023-08-21T08:17:43;9.80;;;7.80;;
38117;SDS011;23928;47.562;7.508;2023-08-21T08:20:10;12.80;;;7.77;;
38117;SDS011;23928;47.562;7.508;2023-08-21T08:22:36;8.50;;;7.60;;
38117;SDS011;23928;47.562;7.508;2023-08-21T08:25:02;9.43;;;7.80;;
38117;SDS011;23928;47.562;7.508;2023-08-21T08:27:28;9.63;;;8.63;;
38117;SDS011;23928;47.562;7.508;2023-08-21T08:29:54;12.83;;;8.67;;
38117;SDS011;23928;47.562;7.508;2023-08-21T08:32:20;11.47;;;8.27;;
38117;SDS011;23928;47.562;7.508;2023-08-21T08:34:45;9.83;;;8.07;;
38117;SDS011;23928;47.562;7.508;2023-08-21T08:37:11;9.60;;;7.87;;
38117;SDS011;23928;47.562;7.508;2023-08-21T08:39:37;9.13;;;7.60;;
38117;SDS011;23928;47.562;7.508;2023-08-21T08:42:03;8.60;;;7.80;;
38117;SDS011;23928;47.562;7.508;2023-08-21T08:44:30;13.60;;;8.33;;
38117;SDS011;23928;47.562;7.508;2023-08-21T08:47:00;11.87;;;7.97;;
38117;SDS011;23928;47.562;7.508;2023-08-21T08:49:26;10.97;;;7.33;;
38117;SDS011;23928;47.562;7.508;2023-08-21T08:51:53;11.63;;;7.73;;
38117;SDS011;23928;47.562;7.508;2023-08-21T08:54:19;9.50;;;7.13;;
38117;SDS011;23928;47.562;7.508;2023-08-21T08:56:47;9.37;;;7.80;;
38117;SDS011;23928;47.562;7.508;2023-08-21T08:59:13;10.07;;;7.53;;
38117;SDS011;23928;47.562;7.508;2023-08-21T09:01:39;8.57;;;7.13;;
38117;SDS011;23928;47.562;7.508;2023-08-21T09:04:06;9.47;;;7.50;;
38117;SDS011;23928;47.562;7.508;2023-08-21T09:06:32;8.10;;;7.33;;
38117;SDS011;23928;47.562;7.508;2023-08-21T09:08:58;8.93;;;7.97;;
38117;SDS011;23928;47.562;7.508;2023-08-21T09:11:24;8.87;;;7.57;;
38117;SDS011;23928;47.562;7.508;2023-08-21T09:13:50;8.97;;;8.07;;
38117;SDS011;23928;47.562;7.508;2023-08-21T09:16:17;9.67;;;7.90;;
38117;SDS011;23928;47.562;7.508;2023-08-21T09:18:47;8.63;;;7.83;;
38117;SDS011;23928;47.562;7.508;2023-08-21T09:21:15;10.57;;;7.97;;
38117;SDS011;23928;47.562;7.508;2023-08-21T09:23:44;9.30;;;7.87;;
38117;SDS011;23928;47.562;7.508;2023-08-21T09:26:11;9.70;;;7.83;;
38117;SDS011;23928;47.562;7.508;2023-08-21T09:28:44;9.67;;;7.70;;
38117;SDS011;23928;47.562;7.508;2023-08-21T09:31:10;9.30;;;7.20;;
38117;SDS011;23928;47.562;7.508;2023-08-21T09:33:36;8.90;;;7.13;;
38117;SDS011;23928;47.562;7.508;2023-08-21T09:36:02;10.60;;;7.57;;
38117;SDS011;23928;47.562;7.508;2023-08-21T09:38:29;11.60;;;7.60;;
38117;SDS011;23928;47.562;7.508;2023-08-21T09:40:55;7.80;;;7.00;;
38117;SDS011;23928;47.562;7.508;2023-08-21T09:43:21;9.53;;;7.73;;
38117;SDS011;23928;47.562;7.508;2023-08-21T09:45:49;9.23;;;7.70;;
38117;SDS011;23928;47.562;7.508;2023-08-21T09:48:17;9.60;;;7.47;;
38117;SDS011;23928;47.562;7.508;2023-08-21T09:50:44;8.20;;;6.83;;
38117;SDS011;23928;47.562;7.508;2023-08-21T09:53:11;12.30;;;7.50;;
38117;SDS011;23928;47.562;7.508;2023-08-21T09:55:37;10.87;;;7.63;;
38117;SDS011;23928;47.562;7.508;2023-08-21T09:58:04;10.43;;;7.53;;
38117;SDS011;23928;47.562;7.508;2023-08-21T10:00:30;9.77;;;7.60;;
38117;SDS011;23928;47.562;7.508;2023-08-21T10:03:01;8.73;;;7.20;;
38117;SDS011;23928;47.562;7.508;2023-08-21T10:05:29;8.73;;;7.80;;
38117;SDS011;23928;47.562;7.508;2023-08-21T10:07:56;12.07;;;8.37;;
38117;SDS011;23928;47.562;7.508;2023-08-21T10:10:34;10.70;;;7.57;;
38117;SDS011;23928;47.562;7.508;2023-08-21T10:13:00;10.50;;;8.70;;
38117;SDS011;23928;47.562;7.508;2023-08-21T10:15:28;13.90;;;8.10;;
38117;SDS011;23928;47.562;7.508;2023-08-21T10:17:54;11.67;;;8.53;;
38117;SDS011;23928;47.562;7.508;2023-08-21T10:20:20;12.57;;;7.87;;
38117;SDS011;23928;47.562;7.508;2023-08-21T10:22:54;9.53;;;7.97;;
38117;SDS011;23928;47.562;7.508;2023-08-21T10:25:21;8.87;;;7.90;;
38117;SDS011;23928;47.562;7.508;2023-08-21T10:27:49;12.53;;;8.07;;
38117;SDS011;23928;47.562;7.508;2023-08-21T10:30:20;9.87;;;7.80;;
38117;SDS011;23928;47.562;7.508;2023-08-21T10:32:53;9.87;;;8.00;;
38117;SDS011;23928;47.562;7.508;2023-08-21T10:35:24;10.43;;;7.37;;
38117;SDS011;23928;47.562;7.508;2023-08-21T10:43:38;9.70;;;7.00;;
38117;SDS011;23928;47.562;7.508;2023-08-21T10:46:08;7.77;;;6.97;;
38117;SDS011;23928;47.562;7.508;2023-08-21T10:48:35;9.37;;;7.23;;
38117;SDS011;23928;47.562;7.508;2023-08-21T10:51:02;10.00;;;7.40;;
38117;SDS011;23928;47.562;7.508;2023-08-21T10:53:30;7.90;;;7.10;;
38117;SDS011;23928;47.562;7.508;2023-08-21T10:55:57;9.07;;;6.70;;
38117;SDS011;23928;47.562;7.508;2023-08-21T10:58:25;9.53;;;7.20;;
38117;SDS011;23928;47.562;7.508;2023-08-21T11:00:57;7.90;;;7.00;;
38117;SDS011;23928;47.562;7.508;2023-08-21T11:03:25;7.57;;;6.77;;
38117;SDS011;23928;47.562;7.508;2023-08-21T11:06:01;7.50;;;6.47;;
38117;SDS011;23928;47.562;7.508;2023-08-21T11:08:28;7.67;;;6.97;;
38117;SDS011;23928;47.562;7.508;2023-08-21T11:10:54;10.97;;;6.63;;
38117;SDS011;23928;47.562;7.508;2023-08-21T11:13:19;7.47;;;6.73;;
38117;SDS011;23928;47.562;7.508;2023-08-21T11:15:48;8.07;;;6.40;;
38117;SDS011;23928;47.562;7.508;2023-08-21T11:18:14;8.90;;;5.90;;
38117;SDS011;23928;47.562;7.508;2023-08-21T11:20:39;8.30;;;6.17;;
38117;SDS011;23928;47.562;7.508;2023-08-21T11:23:06;7.20;;;5.90;;
38117;SDS011;23928;47.562;7.508;2023-08-21T11:25:35;8.10;;;5.93;;
38117;SDS011;23928;47.562;7.508;2023-08-21T11:28:04;11.07;;;5.83;;
38117;SDS011;23928;47.562;7.508;2023-08-21T11:30:31;6.77;;;5.93;;
38117;SDS011;23928;47.562;7.508;2023-08-21T11:33:09;7.77;;;6.10;;
38117;SDS011;23928;47.562;7.508;2023-08-21T11:35:36;7.43;;;5.80;;
38117;SDS011;23928;47.562;7.508;2023-08-21T11:38:03;6.80;;;6.10;;
38117;SDS011;23928;47.562;7.508;2023-08-21T11:40:29;8.03;;;5.77;;
38117;SDS011;23928;47.562;7.508;2023-08-21T11:42:59;9.57;;;5.60;;
38117;SDS011;23928;47.562;7.508;2023-08-21T11:45:26;6.30;;;5.63;;
38117;SDS011;23928;47.562;7.508;2023-08-21T11:47:51;5.87;;;5.27;;
38117;SDS011;23928;47.562;7.508;2023-08-21T11:50:21;8.17;;;5.73;;
38117;SDS011;23928;47.562;7.508;2023-08-21T11:52:47;7.73;;;5.47;;
38117;SDS011;23928;47.562;7.508;2023-08-21T11:55:15;7.63;;;5.37;;
38117;SDS011;23928;47.562;7.508;2023-08-21T11:57:46;7.28;;;5.20;;
38117;SDS011;23928;47.562;7.508;2023-08-21T12:00:15;7.53;;;5.30;;
38117;SDS011;23928;47.562;7.508;2023-08-21T12:02:53;5.67;;;5.13;;
38117;SDS011;23928;47.562;7.508;2023-08-21T12:05:22;7.23;;;5.43;;
38117;SDS011;23928;47.562;7.508;2023-08-21T12:07:48;7.47;;;5.60;;
38117;SDS011;23928;47.562;7.508;2023-08-21T12:10:13;7.80;;;6.05;;
38117;SDS011;23928;47.562;7.508;2023-08-21T12:12:39;7.23;;;5.60;;
38117;SDS011;23928;47.562;7.508;2023-08-21T12:15:05;8.48;;;5.55;;
38117;SDS011;23928;47.562;7.508;2023-08-21T12:17:31;6.82;;;4.95;;
38117;SDS011;23928;47.562;7.508;2023-08-21T12:19:57;7.63;;;4.73;;
38117;SDS011;23928;47.562;7.508;2023-08-21T12:22:22;10.20;;;5.50;;
38117;SDS011;23928;47.562;7.508;2023-08-21T12:24:48;9.40;;;5.30;;
38117;SDS011;23928;47.562;7.508;2023-08-21T12:27:13;5.97;;;4.70;;
38117;SDS011;23928;47.562;7.508;2023-08-21T12:29:39;6.23;;;5.00;;
38117;SDS011;23928;47.562;7.508;2023-08-21T12:32:04;5.82;;;5.20;;
38117;SDS011;23928;47.562;7.508;2023-08-21T12:34:30;8.80;;;4.55;;
38117;SDS011;23928;47.562;7.508;2023-08-21T12:36:56;7.50;;;4.72;;
38117;SDS011;23928;47.562;7.508;2023-08-21T12:39:21;8.73;;;4.70;;
38117;SDS011;23928;47.562;7.508;2023-08-21T12:41:47;9.85;;;5.15;;
38117;SDS011;23928;47.562;7.508;2023-08-21T12:44:13;5.65;;;4.80;;
38117;SDS011;23928;47.562;7.508;2023-08-21T12:46:39;7.60;;;4.70;;
38117;SDS011;23928;47.562;7.508;2023-08-21T12:49:05;8.38;;;5.15;;
38117;SDS011;23928;47.562;7.508;2023-08-21T12:51:31;7.85;;;5.07;;
38117;SDS011;23928;47.562;7.508;2023-08-21T12:53:57;6.38;;;4.90;;
38117;SDS011;23928;47.562;7.508;2023-08-21T12:56:23;8.35;;;5.00;;
38117;SDS011;23928;47.562;7.508;2023-08-21T12:58:48;4.97;;;4.30;;
38117;SDS011;23928;47.562;7.508;2023-08-21T13:01:14;8.00;;;4.68;;
38117;SDS011;23928;47.562;7.508;2023-08-21T13:03:46;6.20;;;4.78;;
38117;SDS011;23928;47.562;7.508;2023-08-21T13:06:12;7.60;;;5.13;;
38117;SDS011;23928;47.562;7.508;2023-08-21T13:08:40;6.38;;;4.95;;
38117;SDS011;23928;47.562;7.508;2023-08-21T13:11:06;6.72;;;4.97;;
38117;SDS011;23928;47.562;7.508;2023-08-21T13:13:32;5.53;;;4.65;;
38117;SDS011;23928;47.562;7.508;2023-08-21T13:15:59;7.07;;;4.85;;
38117;SDS011;23928;47.562;7.508;2023-08-21T13:18:25;10.07;;;5.28;;
38117;SDS011;23928;47.562;7.508;2023-08-21T13:20:51;12.02;;;5.28;;
38117;SDS011;23928;47.562;7.508;2023-08-21T13:23:16;8.43;;;5.10;;
38117;SDS011;23928;47.562;7.508;2023-08-21T13:25:42;6.93;;;4.78;;
38117;SDS011;23928;47.562;7.508;2023-08-21T13:28:08;12.15;;;4.88;;
38117;SDS011;23928;47.562;7.508;2023-08-21T13:30:33;5.60;;;4.47;;
38117;SDS011;23928;47.562;7.508;2023-08-21T13:32:59;8.15;;;5.25;;
38117;SDS011;23928;47.562;7.508;2023-08-21T13:35:25;6.82;;;4.43;;
38117;SDS011;23928;47.562;7.508;2023-08-21T13:37:50;8.02;;;4.90;;
38117;SDS011;23928;47.562;7.508;2023-08-21T13:40:16;7.38;;;4.57;;
38117;SDS011;23928;47.562;7.508;2023-08-21T13:42:43;9.35;;;4.68;;
38117;SDS011;23928;47.562;7.508;2023-08-21T13:45:16;9.15;;;4.72;;
38117;SDS011;23928;47.562;7.508;2023-08-21T13:47:44;8.02;;;4.70;;
38117;SDS011;23928;47.562;7.508;2023-08-21T13:50:13;8.18;;;3.92;;
38117;SDS011;23928;47.562;7.508;2023-08-21T13:52:40;8.70;;;4.07;;
38117;SDS011;23928;47.562;7.508;2023-08-21T13:55:06;6.45;;;4.55;;
38117;SDS011;23928;47.562;7.508;2023-08-21T13:57:32;5.47;;;4.25;;
38117;SDS011;23928;47.562;7.508;2023-08-21T14:00:02;5.43;;;4.32;;
38117;SDS011;23928;47.562;7.508;2023-08-21T14:02:37;6.85;;;4.50;;
38117;SDS011;23928;47.562;7.508;2023-08-21T14:05:03;7.25;;;4.18;;
38117;SDS011;23928;47.562;7.508;2023-08-21T14:07:30;8.77;;;4.10;;
38117;SDS011;23928;47.562;7.508;2023-08-21T14:09:56;7.50;;;4.32;;
38117;SDS011;23928;47.562;7.508;2023-08-21T14:12:22;6.72;;;3.63;;
38117;SDS011;23928;47.562;7.508;2023-08-21T14:14:47;4.47;;;4.00;;
38117;SDS011;23928;47.562;7.508;2023-08-21T14:17:13;5.70;;;4.13;;
38117;SDS011;23928;47.562;7.508;2023-08-21T14:19:39;6.70;;;3.92;;
38117;SDS011;23928;47.562;7.508;2023-08-21T14:22:05;5.40;;;3.60;;
38117;SDS011;23928;47.562;7.508;2023-08-21T14:24:30;4.28;;;3.83;;
38117;SDS011;23928;47.562;7.508;2023-08-21T14:26:56;4.65;;;3.55;;
38117;SDS011;23928;47.562;7.508;2023-08-21T14:29:22;3.95;;;3.55;;
38117;SDS011;23928;47.562;7.508;2023-08-21T14:31:47;4.80;;;3.83;;
38117;SDS011;23928;47.562;7.508;2023-08-21T14:34:14;6.15;;;4.05;;
38117;SDS011;23928;47.562;7.508;2023-08-21T14:36:40;4.10;;;3.80;;
38117;SDS011;23928;47.562;7.508;2023-08-21T14:39:07;3.15;;;2.85;;
38117;SDS011;23928;47.562;7.508;2023-08-21T14:41:35;4.82;;;3.40;;
38117;SDS011;23928;47.562;7.508;2023-08-21T14:44:02;5.57;;;3.38;;
38117;SDS011;23928;47.562;7.508;2023-08-21T14:46:27;3.38;;;3.08;;
38117;SDS011;23928;47.562;7.508;2023-08-21T14:48:53;5.50;;;3.28;;